Search for airport 
image banner adimage banner adimage banner ad
image banner ad

9PA0 - Lance

Located in Parker Ford, United States

ICAO - 9PA0, IATA -

Data provided by Airmate  

General information

Coordinates: N40°11'14" W75°35'25"
Elevation is 275 feet MSL.
Magnetic variation is -11° East
View others Airports in Pennsylvania

Operational data

Special qualification required
Current time UTC:
Current local time:
Weather at : KPTW - Heritage Field ( 6 km )
METAR: KPTW 091254Z AUTO VRB03KT 10SM CLR 09/03 A3011 RMK AO2 SLP195 T00890033
View NOTAMs / SUP AIP / TFR affecting this airport [VIEW]
Communications frequencies: [VIEW]

Runways:

RWY identifierQFULength (ft)Width (ft)SurfaceLDA (ft)
NE2000100GRASS
SW2000100GRASS

Airport contact information

Address: Parker Ford United States

Satellite view of 9PA0